Time;durP1;ratioP1;P1;durP2;ratioP2;P2;SDS_P1;SDS_P2;PMS_P1;PMS_P2;Temp;Humidity;BMP_temperature;BMP_pressure;BME280_temperature;BME280_humidity;BME280_pressure;Samples;Min_cycle;Max_cycle;Signal;HPM_P1;HPM_P2
2022/02/28 00:00:27;;;;;;;8.08;3.00;;;;;;;2.06;60.72;102040.02;1875109;75;21117;-54
2022/02/28 00:02:56;;;;;;;7.97;3.40;;;;;;;2.05;60.56;102045.64;1852443;75;21058;-54
2022/02/28 00:05:24;;;;;;;6.80;3.40;;;;;;;2.02;60.54;102040.52;1851472;76;21085;-54
2022/02/28 00:07:50;;;;;;;8.80;3.67;;;;;;;1.99;60.57;102049.20;1854856;76;21778;-54
2022/02/28 00:10:17;;;;;;;7.37;3.05;;;;;;;1.98;60.54;102038.84;1856479;77;21109;-55
2022/02/28 00:12:45;;;;;;;6.40;2.87;;;;;;;1.97;60.69;102039.75;1858804;75;20967;-56
2022/02/28 00:15:14;;;;;;;8.55;3.42;;;;;;;2.01;60.84;102036.20;1864075;75;21639;-54
2022/02/28 00:17:40;;;;;;;8.40;3.67;;;;;;;2.01;60.94;102033.61;1856061;75;21502;-54
2022/02/28 00:20:09;;;;;;;6.00;3.05;;;;;;;2.03;60.82;102041.80;1852594;75;21046;-55
2022/02/28 00:22:37;;;;;;;8.10;3.65;;;;;;;1.99;60.81;102037.98;1840770;76;21029;-55
2022/02/28 00:25:05;;;;;;;7.40;3.02;;;;;;;1.99;60.77;102040.13;1841133;75;20986;-54
2022/02/28 00:27:34;;;;;;;7.72;3.65;;;;;;;1.98;60.77;102040.99;1838565;77;21078;-54
2022/02/28 00:30:00;;;;;;;7.30;3.47;;;;;;;1.97;60.65;102036.70;1844713;75;21022;-55
2022/02/28 00:32:27;;;;;;;7.10;3.33;;;;;;;1.92;60.66;102039.83;1842003;77;21501;-54
2022/02/28 00:34:54;;;;;;;8.33;4.00;;;;;;;1.92;60.66;102041.13;1842179;75;20996;-54
2022/02/28 00:37:20;;;;;;;7.83;3.80;;;;;;;1.88;60.50;102042.48;1839235;75;21081;-55
2022/02/28 00:39:47;;;;;;;10.53;4.00;;;;;;;1.83;60.60;102043.86;1813081;77;21014;-54
2022/02/28 00:42:14;;;;;;;10.13;4.05;;;;;;;1.79;60.59;102043.51;1784888;79;21124;-54
2022/02/28 00:44:40;;;;;;;8.75;3.85;;;;;;;1.75;60.57;102036.64;1784035;79;21089;-54
2022/02/28 00:47:06;;;;;;;8.20;3.65;;;;;;;1.73;60.64;102037.98;1792562;78;20990;-54
2022/02/28 00:49:33;;;;;;;7.90;3.47;;;;;;;1.72;60.56;102040.61;1791001;79;21591;-55
2022/02/28 00:52:00;;;;;;;8.18;3.55;;;;;;;1.67;60.46;102032.44;1811061;77;21584;-54
2022/02/28 00:54:30;;;;;;;7.17;3.30;;;;;;;1.64;60.48;102040.27;1787555;78;21041;-54
2022/02/28 00:56:57;;;;;;;6.12;3.08;;;;;;;1.61;60.61;102038.17;1823086;77;21054;-55
2022/02/28 00:59:26;;;;;;;6.97;3.02;;;;;;;1.58;60.64;102040.81;1806471;77;20975;-54
2022/02/28 01:01:52;;;;;;;9.23;3.83;;;;;;;1.55;60.66;102039.14;1812196;78;20987;-54
2022/02/28 01:04:19;;;;;;;7.20;2.90;;;;;;;1.53;60.58;102037.44;1815540;78;21473;-54
2022/02/28 01:06:46;;;;;;;6.72;2.83;;;;;;;1.52;60.59;102033.98;1801713;77;21050;-54
2022/02/28 01:09:12;;;;;;;5.25;2.90;;;;;;;1.49;60.72;102036.63;1782615;80;21506;-54
2022/02/28 01:11:39;;;;;;;7.72;3.37;;;;;;;1.46;60.81;102039.27;1800861;77;21078;-58
2022/02/28 01:14:05;;;;;;;9.83;4.15;;;;;;;1.44;61.01;102037.14;1773382;80;21138;-54
2022/02/28 01:16:32;;;;;;;6.50;2.75;;;;;;;1.44;61.02;102040.58;1805340;79;21034;-55
2022/02/28 01:18:58;;;;;;;5.90;3.33;;;;;;;1.42;61.12;102042.80;1791960;79;21113;-54
2022/02/28 01:21:24;;;;;;;6.53;2.47;;;;;;;1.40;61.15;102038.08;1782139;79;21137;-54
2022/02/28 01:23:51;;;;;;;6.00;3.35;;;;;;;1.40;61.09;102038.08;1787051;80;21529;-55
2022/02/28 01:26:18;;;;;;;7.53;3.15;;;;;;;1.41;61.02;102034.59;1801001;79;21097;-54
2022/02/28 01:28:45;;;;;;;8.78;3.60;;;;;;;1.38;61.03;102031.62;1791592;79;21070;-54
2022/02/28 01:31:11;;;;;;;9.63;3.90;;;;;;;1.36;61.02;102024.73;1785152;79;21090;-55
2022/02/28 01:33:38;;;;;;;8.05;3.30;;;;;;;1.30;61.31;102038.20;1789711;80;21829;-54
2022/02/28 01:36:05;;;;;;;11.50;3.80;;;;;;;1.34;61.50;102045.95;1776925;79;21054;-55
2022/02/28 01:38:31;;;;;;;10.05;4.03;;;;;;;1.33;61.37;102045.52;1779166;79;21122;-54
2022/02/28 01:40:58;;;;;;;12.47;4.37;;;;;;;1.30;61.09;102036.91;1778499;79;21466;-54
2022/02/28 01:43:24;;;;;;;7.28;3.77;;;;;;;1.29;61.47;102036.51;1769822;79;21518;-54
2022/02/28 01:45:51;;;;;;;10.08;4.35;;;;;;;1.35;61.62;102043.33;1789628;79;21126;-55
2022/02/28 01:48:17;;;;;;;10.48;5.28;;;;;;;1.36;61.73;102041.59;1739451;81;21015;-54
2022/02/28 01:50:44;;;;;;;9.48;4.10;;;;;;;1.36;61.63;102038.99;1764626;79;21034;-54
2022/02/28 01:53:10;;;;;;;7.45;3.87;;;;;;;1.35;61.56;102042.48;1780685;78;21066;-54
2022/02/28 01:55:37;;;;;;;7.72;4.12;;;;;;;1.32;61.53;102039.94;1801128;79;21066;-55
2022/02/28 01:58:04;;;;;;;10.55;4.15;;;;;;;1.28;61.48;102034.78;1773728;80;21950;-55
2022/02/28 02:00:32;;;;;;;9.60;3.95;;;;;;;1.22;61.33;102033.56;1769646;79;21070;-54
2022/02/28 02:02:58;;;;;;;11.80;3.70;;;;;;;1.19;61.46;102036.20;1786410;79;21537;-54
2022/02/28 02:05:25;;;;;;;7.78;4.15;;;;;;;1.14;61.60;102031.97;1790927;79;21055;-54
2022/02/28 02:07:51;;;;;;;10.18;4.15;;;;;;;1.09;61.79;102034.62;1777136;80;21577;-54
2022/02/28 02:10:18;;;;;;;14.10;4.10;;;;;;;1.07;61.94;102035.94;1768939;78;21125;-55
2022/02/28 02:12:45;;;;;;;8.60;4.12;;;;;;;1.04;62.19;102029.52;1803214;78;21042;-54
2022/02/28 02:15:14;;;;;;;9.75;3.45;;;;;;;1.00;62.44;102036.06;1771670;79;21088;-54
2022/02/28 02:17:42;;;;;;;15.93;4.40;;;;;;;0.92;62.51;102042.63;1787217;78;21090;-54
2022/02/28 02:20:14;;;;;;;8.15;4.00;;;;;;;0.83;63.22;102053.13;1803428;78;21671;-54
2022/02/28 02:23:08;;;;;;;7.37;3.75;;;;;;;0.78;63.42;102051.89;1768748;78;21159;-54
2022/02/28 02:25:35;;;;;;;7.40;3.95;;;;;;;0.71;63.79;102058.03;1817267;78;21034;-53
2022/02/28 02:28:03;;;;;;;7.95;4.03;;;;;;;0.65;64.09;102055.05;1813009;77;21509;-53
2022/02/28 02:30:30;;;;;;;8.75;4.08;;;;;;;0.59;64.13;102057.73;1803443;77;21540;-53
2022/02/28 02:32:58;;;;;;;10.25;4.10;;;;;;;0.54;64.23;102060.37;1772090;79;21105;-55
2022/02/28 02:35:25;;;;;;;11.78;4.17;;;;;;;0.52;64.34;102055.66;1812100;78;21094;-53
2022/02/28 02:37:51;;;;;;;7.22;3.70;;;;;;;0.52;64.22;102057.36;1803210;78;21023;-54
2022/02/28 02:40:17;;;;;;;8.53;3.90;;;;;;;0.49;64.15;102049.66;1792816;78;21057;-53
2022/02/28 02:42:44;;;;;;;10.82;4.83;;;;;;;0.45;64.18;102052.69;1797901;79;21749;-53
2022/02/28 02:45:10;;;;;;;14.43;4.17;;;;;;;0.45;64.29;102056.57;1798917;78;21007;-53
2022/02/28 02:47:38;;;;;;;11.97;3.90;;;;;;;0.44;64.10;102061.35;1797763;78;21129;-53
2022/02/28 02:50:09;;;;;;;7.75;4.05;;;;;;;0.41;64.29;102056.20;1800028;78;21026;-53
2022/02/28 02:52:35;;;;;;;7.87;3.40;;;;;;;0.37;64.47;102050.65;1776301;78;21129;-54
2022/02/28 02:55:03;;;;;;;7.95;4.08;;;;;;;0.37;64.47;102050.65;1800681;79;21371;-53
2022/02/28 02:57:30;;;;;;;8.33;4.10;;;;;;;0.31;64.12;102052.84;1801537;78;20998;-53
2022/02/28 03:00:05;;;;;;;7.30;3.22;;;;;;;0.31;64.12;102052.84;1797122;78;21140;-54
2022/02/28 03:02:33;;;;;;;;;;;;;;;0.32;64.57;102057.16;1821338;78;21559;-54
2022/02/28 03:05:01;;;;;;;7.55;3.72;;;;;;;0.32;64.57;102049.81;1797826;79;20182;-53
2022/02/28 03:07:27;;;;;;;8.70;3.72;;;;;;;0.28;64.73;102049.44;1789466;78;21149;-53
2022/02/28 03:09:54;;;;;;;7.25;3.42;;;;;;;0.25;64.69;102054.19;1784978;78;21078;-53
2022/02/28 03:12:21;;;;;;;6.42;3.12;;;;;;;0.24;64.67;102050.36;1783846;78;21081;-53
2022/02/28 03:14:48;;;;;;;9.00;3.40;;;;;;;0.24;64.69;102052.94;1777718;79;21042;-53
2022/02/28 03:17:15;;;;;;;9.53;3.87;;;;;;;0.24;64.67;102050.36;1811996;78;21076;-53
2022/02/28 03:19:42;;;;;;;7.20;3.12;;;;;;;0.25;64.69;102054.64;1772459;78;21109;-53
2022/02/28 03:22:09;;;;;;;10.53;3.98;;;;;;;0.26;64.63;102049.89;1790177;78;21134;-53
2022/02/28 03:24:36;;;;;;;6.42;3.20;;;;;;;0.22;64.67;102047.78;1780627;80;21143;-54
2022/02/28 03:27:04;;;;;;;8.98;4.20;;;;;;;0.18;64.73;102043.48;1782926;79;21054;-53
2022/02/28 03:29:31;;;;;;;6.90;3.17;;;;;;;0.20;64.80;102050.80;1769379;80;21560;-53
2022/02/28 03:31:57;;;;;;;7.67;3.02;;;;;;;0.17;64.90;102043.93;1770889;79;21040;-53
2022/02/28 03:34:24;;;;;;;6.78;2.85;;;;;;;0.16;64.91;102053.85;1778929;80;21062;-53
2022/02/28 03:36:51;;;;;;;6.70;3.10;;;;;;;0.11;65.11;102046.57;1760405;80;21081;-53
2022/02/28 03:39:17;;;;;;;7.25;3.17;;;;;;;0.07;65.23;102043.61;1782474;80;21098;-53
2022/02/28 03:41:44;;;;;;;5.72;2.95;;;;;;;0.06;65.31;102044.47;1781451;79;21475;-52
2022/02/28 03:44:11;;;;;;;8.85;3.12;;;;;;;0.06;65.39;102044.47;1765399;79;21362;-53
2022/02/28 03:46:39;;;;;;;6.72;3.17;;;;;;;0.08;65.38;102045.30;1778792;79;21544;-53
2022/02/28 03:49:17;;;;;;;7.53;2.52;;;;;;;0.09;65.44;102047.48;1779142;79;21121;-52
2022/02/28 03:51:48;;;;;;;8.08;3.30;;;;;;;0.05;65.47;102049.66;1768926;80;20991;-52
2022/02/28 03:54:16;;;;;;;7.35;3.22;;;;;;;0.02;65.58;102046.67;1765148;80;21086;-52
2022/02/28 03:56:44;;;;;;;5.67;2.90;;;;;;;0.02;65.61;102049.68;1786138;79;21393;-52
2022/02/28 03:59:13;;;;;;;6.75;2.98;;;;;;;0.03;65.60;102041.91;1762985;80;21019;-53
2022/02/28 04:01:40;;;;;;;8.75;2.55;;;;;;;0.04;65.57;102038.90;1779685;79;21105;-52
2022/02/28 04:04:08;;;;;;;8.03;2.85;;;;;;;0.04;65.52;102043.63;1780659;80;21078;-52
2022/02/28 04:06:35;;;;;;;9.03;2.95;;;;;;;0.04;65.58;102046.66;1782040;79;21658;-52
2022/02/28 04:09:04;;;;;;;5.80;2.47;;;;;;;0.05;65.38;102050.95;1777349;79;21058;-52
2022/02/28 04:11:33;;;;;;;7.40;2.60;;;;;;;0.08;65.38;102053.06;1794560;78;20997;-53
2022/02/28 04:14:00;;;;;;;7.30;2.37;;;;;;;0.08;65.36;102053.06;1773089;80;21102;-53
2022/02/28 04:16:27;;;;;;;7.35;2.27;;;;;;;0.10;65.26;102050.05;1770623;79;22359;-53
2022/02/28 04:19:12;;;;;;;5.58;2.33;;;;;;;0.09;65.26;102059.12;1763599;79;21061;-53
2022/02/28 04:21:43;;;;;;;6.15;2.72;;;;;;;0.09;65.27;102070.33;1770013;79;21462;-53
2022/02/28 04:24:09;;;;;;;7.62;2.58;;;;;;;0.09;65.27;102070.33;1774760;79;21082;-53
2022/02/28 04:26:36;;;;;;;8.25;2.60;;;;;;;0.09;65.09;102070.33;1774877;79;21182;-53
2022/02/28 04:29:04;;;;;;;5.22;2.33;;;;;;;0.09;64.94;102074.66;1768251;79;21587;-52
2022/02/28 04:31:30;;;;;;;5.05;2.42;;;;;;;0.07;64.82;102074.67;1761123;79;21014;-53
2022/02/28 04:33:57;;;;;;;4.22;1.77;;;;;;;0.06;64.76;102078.11;1772951;79;21054;-52
2022/02/28 04:36:24;;;;;;;5.35;2.22;;;;;;;0.05;64.68;102081.59;1759974;79;21081;-53
2022/02/28 04:38:51;;;;;;;5.70;2.35;;;;;;;0.00;64.54;102083.37;1763785;79;22317;-53
2022/02/28 04:41:18;;;;;;;6.33;2.77;;;;;;;0.00;64.60;102083.37;1756702;79;21083;-53
2022/02/28 04:43:46;;;;;;;6.25;3.00;;;;;;;0.00;64.60;102083.37;1757276;79;21087;-53
2022/02/28 04:46:13;;;;;;;6.47;2.70;;;;;;;-0.01;64.76;102082.48;1767570;79;21544;-53
2022/02/28 04:48:40;;;;;;;4.95;2.17;;;;;;;-0.05;64.80;102077.34;1769580;79;21018;-53
2022/02/28 04:51:15;;;;;;;5.97;2.27;;;;;;;-0.06;64.80;102084.70;1766376;79;21133;-53
2022/02/28 04:53:42;;;;;;;6.10;2.27;;;;;;;-0.07;64.88;102079.09;1774560;79;21015;-53
2022/02/28 04:56:08;;;;;;;6.62;2.50;;;;;;;-0.09;64.85;102086.02;1768218;79;21098;-53
2022/02/28 04:58:35;;;;;;;6.35;2.50;;;;;;;-0.13;64.86;102089.07;1765258;79;21125;-53
2022/02/28 05:01:06;;;;;;;8.13;2.60;;;;;;;-0.19;64.87;102083.48;1764914;79;21621;-53
2022/02/28 05:03:32;;;;;;;6.45;2.42;;;;;;;-0.19;65.03;102088.66;1775921;79;21099;-53
2022/02/28 05:06:00;;;;;;;5.55;2.20;;;;;;;-0.19;65.03;102088.66;1763253;81;21681;-53
2022/02/28 05:08:27;;;;;;;5.10;1.98;;;;;;;-0.18;64.76;102092.13;1759843;79;21105;-55
2022/02/28 05:10:53;;;;;;;6.37;2.05;;;;;;;-0.16;64.42;102102.47;1772785;79;21034;-57
2022/02/28 05:13:20;;;;;;;6.97;2.65;;;;;;;-0.16;64.42;102102.47;1770120;79;21135;-57
2022/02/28 05:15:46;;;;;;;6.95;2.83;;;;;;;-0.18;64.65;102107.66;1765754;81;21096;-57
2022/02/28 05:18:14;;;;;;;4.17;1.77;;;;;;;-0.20;64.48;102106.38;1769988;79;21033;-58
2022/02/28 05:20:41;;;;;;;6.30;2.22;;;;;;;-0.20;64.48;102106.38;1770620;79;21098;-57
2022/02/28 05:23:09;;;;;;;9.70;2.60;;;;;;;-0.19;64.53;102110.66;1782329;78;21489;-59
2022/02/28 05:25:36;;;;;;;5.80;2.37;;;;;;;-0.19;64.53;102110.66;1800054;78;21115;-57
2022/02/28 05:28:03;;;;;;;5.60;2.17;;;;;;;-0.17;64.62;102110.65;1787535;79;21122;-57
2022/02/28 05:30:30;;;;;;;6.08;2.12;;;;;;;-0.16;64.71;102119.30;1794622;79;21046;-57
2022/02/28 05:32:58;;;;;;;6.33;2.22;;;;;;;-0.14;64.61;102118.84;1790917;78;22329;-57
2022/02/28 05:35:33;;;;;;;4.92;1.92;;;;;;;-0.15;64.49;102120.98;1785727;79;21042;-57
2022/02/28 05:38:02;;;;;;;5.70;1.90;;;;;;;-0.14;64.40;102126.16;1790113;78;21058;-57
2022/02/28 05:40:29;;;;;;;5.65;1.92;;;;;;;-0.14;64.36;102125.30;1740307;79;21130;-58
2022/02/28 05:42:57;;;;;;;5.97;2.62;;;;;;;-0.13;64.46;102127.03;1791705;78;21090;-57
2022/02/28 05:45:23;;;;;;;5.40;2.33;;;;;;;-0.15;64.44;102121.87;1787650;78;21616;-57
2022/02/28 05:47:52;;;;;;;4.72;2.20;;;;;;;-0.10;64.16;102126.98;1790230;78;21758;-58
2022/02/28 05:50:18;;;;;;;5.35;2.70;;;;;;;-0.08;63.90;102123.53;1812135;78;21037;-57
2022/02/28 05:52:45;;;;;;;5.12;2.47;;;;;;;-0.09;63.36;102115.33;1801459;78;21133;-58
2022/02/28 05:55:12;;;;;;;5.55;2.55;;;;;;;-0.12;63.27;102121.82;1805367;78;21539;-58
2022/02/28 05:57:38;;;;;;;8.50;2.77;;;;;;;-0.10;62.91;102123.10;1800406;78;21031;-57
2022/02/28 06:00:07;;;;;;;6.53;1.80;;;;;;;-0.10;62.52;102123.10;1787893;79;21046;-57
2022/02/28 06:02:36;;;;;;;4.97;1.67;;;;;;;-0.06;62.46;102124.81;1782425;78;21112;-57
2022/02/28 06:05:07;;;;;;;4.58;1.70;;;;;;;-0.01;62.12;102123.05;1783264;79;22348;-57
2022/02/28 06:07:36;;;;;;;5.00;1.70;;;;;;;0.03;61.68;102122.58;1810967;78;21065;-57
2022/02/28 06:10:04;;;;;;;5.00;1.37;;;;;;;0.08;61.36;102126.84;1810488;77;21125;-57
2022/02/28 06:12:31;;;;;;;5.15;2.02;;;;;;;0.11;60.82;102131.14;1805893;78;21016;-57
2022/02/28 06:14:57;;;;;;;4.17;1.72;;;;;;;0.13;60.57;102131.54;1817637;78;20970;-57
2022/02/28 06:17:23;;;;;;;4.62;1.98;;;;;;;0.25;59.58;102146.55;1803269;78;21093;-56
2022/02/28 06:19:50;;;;;;;2.70;1.10;;;;;;;0.25;59.58;102146.55;1813886;78;21552;-57
2022/02/28 06:22:17;;;;;;;5.60;1.52;;;;;;;0.28;59.35;102138.77;1810936;78;21053;-56
2022/02/28 06:24:44;;;;;;;4.45;1.80;;;;;;;0.37;59.17;102137.41;1798951;79;21184;-57
2022/02/28 06:27:11;;;;;;;3.75;1.20;;;;;;;0.42;58.82;102134.33;1782652;78;21549;-57
2022/02/28 06:29:40;;;;;;;5.58;1.60;;;;;;;0.42;58.82;102134.33;1780427;79;21137;-56
2022/02/28 06:32:08;;;;;;;3.70;1.10;;;;;;;0.46;58.49;102137.74;1780132;78;21591;-57
2022/02/28 06:34:35;;;;;;;4.10;1.35;;;;;;;0.49;58.18;102139.02;1778717;78;21081;-56
2022/02/28 06:37:02;;;;;;;3.80;1.30;;;;;;;0.52;58.31;102133.36;1775819;78;21097;-57
2022/02/28 06:39:29;;;;;;;3.65;1.27;;;;;;;0.51;57.70;102131.63;1784143;79;21065;-57
2022/02/28 06:41:55;;;;;;;4.10;1.32;;;;;;;0.57;57.91;102143.66;1787779;80;21120;-57
2022/02/28 06:44:22;;;;;;;3.65;1.30;;;;;;;0.59;57.46;102135.87;1781249;80;21046;-57
2022/02/28 06:46:48;;;;;;;4.75;1.50;;;;;;;0.63;57.14;102140.16;1781861;80;21591;-57
2022/02/28 06:49:14;;;;;;;3.08;1.20;;;;;;;0.65;56.65;102132.77;1786366;79;20994;-57
2022/02/28 06:51:41;;;;;;;6.25;1.52;;;;;;;0.67;56.11;102136.65;1780529;79;21070;-56
2022/02/28 06:54:07;;;;;;;5.03;1.60;;;;;;;0.66;55.29;102119.41;1783307;80;21850;-56
2022/02/28 06:56:34;;;;;;;4.12;1.57;;;;;;;0.67;55.31;102128.87;1785113;80;21080;-56
2022/02/28 06:59:00;;;;;;;4.28;1.70;;;;;;;0.69;55.35;102137.48;1784546;79;21041;-57
2022/02/28 07:01:27;;;;;;;4.47;1.70;;;;;;;0.70;55.26;102133.58;1755494;80;21057;-56
2022/02/28 07:03:58;;;;;;;4.60;1.60;;;;;;;0.72;54.81;102137.04;1779031;79;21042;-56
2022/02/28 07:06:25;;;;;;;3.92;1.65;;;;;;;0.76;54.91;102142.16;1784242;79;21515;-56
2022/02/28 07:08:53;;;;;;;5.10;1.62;;;;;;;0.82;53.94;102135.63;1787260;79;21003;-56
2022/02/28 07:11:19;;;;;;;6.10;2.10;;;;;;;0.85;54.23;102140.33;1776959;79;21861;-56
2022/02/28 07:13:47;;;;;;;4.45;1.82;;;;;;;0.89;53.92;102146.34;1778906;78;21105;-56
2022/02/28 07:16:16;;;;;;;8.15;2.10;;;;;;;0.93;54.31;102134.63;1778699;79;21038;-56
2022/02/28 07:18:42;;;;;;;7.65;2.05;;;;;;;0.95;53.13;102135.06;1777185;79;21127;-57
2022/02/28 07:21:09;;;;;;;7.53;2.27;;;;;;;1.04;53.09;102146.59;1780707;79;21077;-57
2022/02/28 07:23:35;;;;;;;4.97;1.80;;;;;;;1.03;52.85;102148.34;1784351;79;21622;-56
2022/02/28 07:26:01;;;;;;;6.37;2.40;;;;;;;1.06;52.88;102147.44;1784977;79;21019;-56
2022/02/28 07:28:28;;;;;;;5.17;2.12;;;;;;;1.08;52.43;102145.70;1748303;78;20999;-57
2022/02/28 07:30:55;;;;;;;4.45;1.60;;;;;;;1.11;52.72;102147.81;1786094;80;21109;-56
2022/02/28 07:33:21;;;;;;;4.58;1.98;;;;;;;1.23;53.02;102155.03;1778296;79;21101;-56
2022/02/28 07:35:48;;;;;;;5.47;1.98;;;;;;;1.33;53.13;102154.03;1781275;79;21073;-56
2022/02/28 07:38:15;;;;;;;6.22;2.02;;;;;;;1.40;52.26;102149.17;1783097;79;21019;-57
2022/02/28 07:40:41;;;;;;;7.55;2.10;;;;;;;1.48;51.83;102148.63;1782751;79;21117;-56
2022/02/28 07:43:08;;;;;;;5.35;2.08;;;;;;;1.56;51.22;102149.80;1782707;79;21984;-56
2022/02/28 07:45:35;;;;;;;4.50;1.85;;;;;;;1.60;50.99;102151.94;1782508;80;21305;-56
2022/02/28 07:48:01;;;;;;;5.60;2.50;;;;;;;1.61;50.97;102146.70;1780882;79;21125;-56
2022/02/28 07:50:28;;;;;;;5.08;2.00;;;;;;;1.67;50.83;102149.22;1783613;80;21108;-58
2022/02/28 07:52:54;;;;;;;6.10;2.55;;;;;;;1.74;50.40;102146.55;1784657;79;21755;-57
2022/02/28 07:55:21;;;;;;;6.53;1.80;;;;;;;1.78;50.54;102143.00;1777527;79;21128;-56
2022/02/28 07:57:47;;;;;;;5.17;2.05;;;;;;;1.85;49.32;102148.55;1782837;80;21065;-56
2022/02/28 08:00:15;;;;;;;5.25;1.92;;;;;;;1.86;48.90;102148.95;1780380;80;21576;-58
2022/02/28 08:02:42;;;;;;;5.62;1.80;;;;;;;1.88;48.77;102151.06;1778103;79;20999;-56
2022/02/28 08:05:09;;;;;;;6.62;2.30;;;;;;;1.91;49.43;102157.97;1781836;79;21069;-56
2022/02/28 08:07:40;;;;;;;4.87;2.00;;;;;;;1.95;49.13;102157.02;1777865;79;21040;-56
2022/02/28 08:10:08;;;;;;;5.03;1.82;;;;;;;1.98;48.24;102147.44;1785063;79;21065;-56
2022/02/28 08:12:34;;;;;;;6.62;2.55;;;;;;;2.01;48.91;102153.89;1783715;79;20982;-55
2022/02/28 08:15:01;;;;;;;6.37;1.85;;;;;;;2.08;48.86;102153.80;1780363;79;21105;-57
2022/02/28 08:17:28;;;;;;;4.70;1.85;;;;;;;2.16;48.49;102152.79;1766283;80;21126;-57
2022/02/28 08:19:55;;;;;;;6.22;2.12;;;;;;;2.20;48.30;102149.70;1782170;78;21125;-58
2022/02/28 08:22:21;;;;;;;5.45;2.12;;;;;;;2.27;48.10;102152.63;1787430;80;21682;-57
2022/02/28 08:24:47;;;;;;;6.30;2.25;;;;;;;2.31;47.54;102150.83;1775005;79;21110;-58
2022/02/28 08:28:36;;;;;;;9.18;2.30;;;;;;;2.40;47.28;102143.73;1889724;74;22589;-55
2022/02/28 08:31:04;;;;;;;5.67;1.70;;;;;;;2.40;46.95;102141.14;1856366;75;21029;-55
2022/02/28 08:33:31;;;;;;;4.87;1.55;;;;;;;2.45;46.88;102139.73;1846550;75;21020;-57
2022/02/28 08:35:58;;;;;;;4.90;1.82;;;;;;;2.49;46.71;102143.13;1816076;78;21544;-57
2022/02/28 08:38:24;;;;;;;4.87;1.87;;;;;;;2.52;46.91;102141.78;1802121;78;21026;-57
2022/02/28 08:40:51;;;;;;;8.73;2.55;;;;;;;2.55;47.00;102138.68;1820243;78;20943;-57
2022/02/28 08:43:17;;;;;;;6.20;2.05;;;;;;;2.62;46.30;102147.67;1809286;78;21042;-58
2022/02/28 08:45:44;;;;;;;4.97;1.72;;;;;;;2.62;46.60;102139.42;1800458;77;21065;-57
2022/02/28 08:48:10;;;;;;;5.17;1.80;;;;;;;2.69;47.04;102146.25;1810858;77;21024;-56
2022/02/28 08:50:37;;;;;;;5.10;1.90;;;;;;;2.71;46.22;102139.72;1781978;79;21105;-57
2022/02/28 08:53:03;;;;;;;4.55;1.75;;;;;;;2.73;46.44;102140.09;1808959;77;20998;-56
2022/02/28 08:55:29;;;;;;;5.55;2.10;;;;;;;2.70;46.06;102137.55;1785880;80;21027;-57
2022/02/28 08:57:56;;;;;;;5.80;2.27;;;;;;;2.70;46.53;102140.59;1787199;80;21101;-56
2022/02/28 09:00:23;;;;;;;5.25;2.22;;;;;;;2.74;46.52;102146.13;1780032;79;21473;-57
2022/02/28 09:02:49;;;;;;;5.30;1.92;;;;;;;2.77;46.71;102146.96;1781194;80;21128;-56
2022/02/28 09:05:16;;;;;;;5.75;1.75;;;;;;;2.84;46.57;102145.52;1809226;78;21003;-57
2022/02/28 09:07:42;;;;;;;5.72;2.12;;;;;;;2.89;46.65;102146.28;1803478;78;21502;-57
2022/02/28 09:10:09;;;;;;;5.65;2.17;;;;;;;2.95;46.39;102147.48;1810762;77;21089;-58
2022/02/28 09:12:37;;;;;;;5.67;1.92;;;;;;;3.01;46.22;102146.06;1787593;78;21048;-56
2022/02/28 09:15:05;;;;;;;4.45;1.77;;;;;;;3.04;45.95;102145.97;1806905;78;21058;-57
2022/02/28 09:17:33;;;;;;;4.03;1.70;;;;;;;3.06;45.58;102128.62;1812719;77;20986;-56
2022/02/28 09:20:00;;;;;;;6.08;1.67;;;;;;;3.05;45.25;102126.05;1785265;78;21019;-57
2022/02/28 09:22:26;;;;;;;3.95;1.87;;;;;;;3.03;45.71;102125.23;1801124;77;21801;-57
2022/02/28 09:24:53;;;;;;;3.87;1.52;;;;;;;3.04;45.46;102122.56;1792253;78;21072;-57
2022/02/28 09:27:19;;;;;;;4.65;1.47;;;;;;;3.05;45.31;102124.30;1791207;78;21061;-57
2022/02/28 09:29:46;;;;;;;5.62;1.80;;;;;;;3.06;45.47;102118.22;1785036;79;21490;-56
2022/02/28 09:32:13;;;;;;;4.37;1.65;;;;;;;3.12;45.57;102121.12;1782588;80;21049;-57
2022/02/28 09:34:40;;;;;;;5.22;1.85;;;;;;;3.18;44.74;102117.52;1786647;79;21120;-57
2022/02/28 09:37:07;;;;;;;5.45;1.82;;;;;;;3.21;44.48;102117.46;1790784;79;21513;-57
2022/02/28 09:39:33;;;;;;;5.00;1.37;;;;;;;3.25;44.36;102115.22;1798992;78;21081;-58
2022/02/28 09:42:05;;;;;;;7.53;1.90;;;;;;;3.27;44.81;102107.78;1788875;78;21113;-57
2022/02/28 09:44:51;;;;;;;4.87;1.50;;;;;;;3.34;44.43;102101.55;1766314;79;21105;-57
2022/02/28 09:47:37;;;;;;;5.15;2.00;;;;;;;3.41;44.41;102105.32;1796305;79;26852;-56
2022/02/28 09:50:20;;;;;;;4.85;1.47;;;;;;;3.47;43.87;102093.02;1753147;80;21089;-56
2022/02/28 09:53:00;;;;;;;2.92;1.07;;;;;;;3.47;43.25;102084.37;1764260;79;21596;-57
2022/02/28 09:55:38;;;;;;;4.75;1.57;;;;;;;3.46;43.48;102087.42;1735511;80;21077;-58
2022/02/28 09:58:06;;;;;;;4.92;1.57;;;;;;;3.47;43.37;102083.91;1766765;80;21763;-58
2022/02/28 10:00:35;;;;;;;4.00;1.80;;;;;;;3.51;43.45;102078.19;1763673;79;23219;-58
2022/02/28 10:03:02;;;;;;;5.58;2.10;;;;;;;3.59;43.54;102083.23;1734574;80;21056;-58
2022/02/28 10:05:29;;;;;;;5.10;1.77;;;;;;;3.65;43.45;102073.52;1779453;80;21125;-56
2022/02/28 10:07:58;;;;;;;5.60;1.22;;;;;;;3.72;42.67;102063.82;1795293;79;21049;-58
2022/02/28 10:10:26;;;;;;;3.85;1.22;;;;;;;3.81;42.08;102064.03;1773626;79;21061;-57
2022/02/28 10:12:53;;;;;;;4.83;1.65;;;;;;;3.91;42.06;102059.00;1764724;80;21168;-57
2022/02/28 10:15:24;;;;;;;4.22;1.40;;;;;;;3.94;42.22;102052.88;1774805;79;21072;-56
2022/02/28 10:18:03;;;;;;;4.33;1.32;;;;;;;3.98;41.51;102051.42;1775967;79;21516;-56
2022/02/28 10:20:37;;;;;;;5.15;1.62;;;;;;;4.06;41.77;102057.30;1769502;80;21055;-57
2022/02/28 10:23:08;;;;;;;5.65;1.98;;;;;;;4.14;41.78;102049.30;1784904;78;20990;-56
2022/02/28 10:25:53;;;;;;;3.85;1.45;;;;;;;4.24;41.72;102048.61;1730230;80;21097;-57
2022/02/28 10:28:35;;;;;;;4.12;1.35;;;;;;;4.33;41.70;102044.89;1733947;78;22321;-57
2022/02/28 10:31:05;;;;;;;3.80;1.30;;;;;;;4.38;41.08;102036.50;1804236;78;21081;-56
2022/02/28 10:33:50;;;;;;;4.15;1.02;;;;;;;4.44;39.97;102041.09;1787863;78;21086;-56
2022/02/28 10:36:35;;;;;;;3.60;1.00;;;;;;;4.50;39.75;102037.45;1787271;79;21041;-57
2022/02/28 10:39:10;;;;;;;4.05;1.25;;;;;;;4.53;39.29;102043.89;1783844;78;21133;-58
2022/02/28 10:41:40;;;;;;;2.77;0.90;;;;;;;4.53;39.43;102039.13;1781592;79;21050;-58
2022/02/28 10:44:13;;;;;;;2.52;0.88;;;;;;;4.57;40.27;102035.09;1813562;77;21068;-58
2022/02/28 10:46:44;;;;;;;3.50;1.22;;;;;;;4.67;39.89;102029.61;1796299;78;21019;-55
2022/02/28 10:49:20;;;;;;;4.60;1.57;;;;;;;4.77;40.47;102027.13;1794999;79;21074;-57
2022/02/28 10:51:55;;;;;;;6.75;1.52;;;;;;;4.82;41.19;102020.90;1791923;78;21572;-56
2022/02/28 10:54:31;;;;;;;3.87;1.22;;;;;;;4.87;41.08;102021.20;1789961;79;21705;-56
2022/02/28 10:57:09;;;;;;;3.72;1.55;;;;;;;4.93;40.25;102022.33;1795039;78;21120;-57
2022/02/28 10:59:50;;;;;;;4.00;1.50;;;;;;;4.94;40.03;102020.98;1794396;78;21097;-57
2022/02/28 11:02:34;;;;;;;4.78;1.60;;;;;;;4.92;39.88;102025.82;1790096;79;21069;-57
2022/02/28 11:05:15;;;;;;;5.08;1.85;;;;;;;4.95;40.27;102033.10;1791284;78;21131;-60
2022/02/28 11:07:45;;;;;;;5.72;1.70;;;;;;;4.97;40.44;102024.77;1794018;78;21096;-57
2022/02/28 11:10:12;;;;;;;3.45;1.10;;;;;;;4.97;40.39;102028.69;1781967;78;21620;-57
2022/02/28 11:12:38;;;;;;;4.55;1.50;;;;;;;4.98;39.69;102018.67;1813470;78;21065;-56
2022/02/28 11:15:13;;;;;;;2.83;1.12;;;;;;;5.01;39.46;102015.97;1807730;77;21485;-57
2022/02/28 11:17:40;;;;;;;5.60;1.52;;;;;;;5.09;39.55;102021.39;1812780;78;21078;-57
2022/02/28 11:20:10;;;;;;;3.12;1.25;;;;;;;5.12;39.60;102023.91;1813070;77;21084;-58
2022/02/28 11:22:38;;;;;;;5.83;1.62;;;;;;;5.17;40.38;102015.48;1811229;77;21117;-57
2022/02/28 11:25:09;;;;;;;3.55;1.40;;;;;;;5.18;40.92;102017.21;1790421;78;21034;-57
2022/02/28 11:27:38;;;;;;;4.17;1.40;;;;;;;5.25;40.44;102009.58;1793659;79;21148;-58
2022/02/28 11:30:13;;;;;;;3.52;1.22;;;;;;;5.30;39.78;102012.90;1787219;80;21154;-57
2022/02/28 11:32:40;;;;;;;3.65;1.07;;;;;;;5.39;39.44;102013.89;1776843;78;26958;-58
2022/02/28 11:35:50;;;;;;;3.45;1.12;;;;;;;5.50;39.04;102017.94;1801835;78;21094;-57
2022/02/28 11:38:23;;;;;;;3.87;1.30;;;;;;;5.59;38.95;102015.02;1803837;78;21026;-58